モロニ の空港の天気 - METARとTAF

プリンス・サイード・イブラヒーム国際空港 ( FMCH / HAH ) - コモロ モロニ
飛行場実況気象(Metar)
観測時間-
風向・風速- -
視程-
天気現象-
-
気温-
湿度-
気圧-
METAR-
過去の天気等 Google飛行場航空写真 Wunderground天気予報

過去48時間のMETAR

飛行場予報(TAF)
発表時間: -
20日8時 EAT ~ 20日10時 EAT に徐々に
風向・風速南西 5m/s
20日18時 EAT ~ 20日20時 EAT に徐々に
風向・風速東 2m/s
TAF COR
FMCH 191700Z 1918/2024 11003KT 9999 FEW020
BECMG 2005/2007 22010KT
BECMG 2015/2017 10003KT